Time;durP1;ratioP1;P1;durP2;ratioP2;P2;SDS_P1;SDS_P2;PMS_P1;PMS_P2;Temp;Humidity;BMP_temperature;BMP_pressure;BME280_temperature;BME280_humidity;BME280_pressure;Samples;Min_cycle;Max_cycle;Signal;HPM_P1;HPM_P2
2022/05/01 00:00:43;;;;;;;0.10;0.10;;;11.00;99.90;;;;;;4988365;28;20243;-72
2022/05/01 00:03:30;;;;;;;0.10;0.10;;;11.00;99.90;;;;;;4987593;28;20186;-71
2022/05/01 00:05:59;;;;;;;0.10;0.10;;;11.00;99.90;;;;;;4992193;28;20209;-72
2022/05/01 00:08:26;;;;;;;0.10;0.10;;;11.00;99.90;;;;;;4994312;28;20217;-71
2022/05/01 00:10:54;;;;;;;0.10;0.10;;;11.00;99.90;;;;;;4999715;28;20213;-71
2022/05/01 00:13:22;;;;;;;0.10;0.10;;;11.00;99.90;;;;;;4984485;28;20236;-72
2022/05/01 00:15:50;;;;;;;0.10;0.10;;;10.90;99.90;;;;;;4984944;28;20211;-71
2022/05/01 00:18:17;;;;;;;0.10;0.10;;;10.90;99.90;;;;;;4984948;28;20201;-71
2022/05/01 00:20:44;;;;;;;0.10;0.10;;;10.90;99.90;;;;;;4985147;28;20208;-71
2022/05/01 00:23:12;;;;;;;0.10;0.10;;;11.00;99.90;;;;;;4985767;28;20202;-72
2022/05/01 00:25:41;;;;;;;0.10;0.10;;;11.00;99.90;;;;;;4982776;28;20244;-72
2022/05/01 00:28:09;;;;;;;0.10;0.10;;;10.90;99.90;;;;;;4984080;28;20201;-72
2022/05/01 00:30:37;;;;;;;0.10;0.10;;;10.90;99.90;;;;;;4980407;28;20217;-71
2022/05/01 00:38:35;;;;;;;0.10;0.10;;;10.90;99.90;;;;;;4983058;28;20200;-72
2022/05/01 00:41:03;;;;;;;0.00;0.00;;;;;;;;;;4982347;28;20305;-73
2022/05/01 00:43:30;;;;;;;0.10;0.10;;;10.80;99.90;;;;;;4983259;28;20234;-72
2022/05/01 00:45:57;;;;;;;0.10;0.10;;;10.80;99.90;;;;;;4984069;28;20224;-71
2022/05/01 00:48:24;;;;;;;0.10;0.10;;;10.80;99.90;;;;;;4994552;28;20205;-71
2022/05/01 00:50:53;;;;;;;0.10;0.10;;;10.70;99.90;;;;;;4982813;28;20256;-71
2022/05/01 00:53:20;;;;;;;0.10;0.10;;;10.80;99.90;;;;;;4982680;28;20231;-70
2022/05/01 00:55:49;;;;;;;0.10;0.10;;;10.70;99.90;;;;;;4981696;28;20208;-71
2022/05/01 00:58:16;;;;;;;0.10;0.10;;;10.70;99.90;;;;;;4980296;28;20205;-71
2022/05/01 01:00:43;;;;;;;0.10;0.10;;;10.80;99.90;;;;;;4973034;28;20209;-71
2022/05/01 01:03:10;;;;;;;0.10;0.10;;;10.70;99.90;;;;;;4981686;28;20248;-72
2022/05/01 01:05:37;;;;;;;0.10;0.10;;;10.70;99.90;;;;;;4981392;28;20201;-72
2022/05/01 01:08:05;;;;;;;0.10;0.10;;;10.80;99.90;;;;;;4980443;28;20291;-71
2022/05/01 01:10:32;;;;;;;0.10;0.10;;;10.80;99.90;;;;;;4982271;28;20217;-72
2022/05/01 01:13:01;;;;;;;0.10;0.10;;;10.80;99.90;;;;;;4973713;28;20249;-72
2022/05/01 01:15:30;;;;;;;0.10;0.10;;;10.80;99.90;;;;;;4981546;28;20329;-72
2022/05/01 01:17:57;;;;;;;0.10;0.10;;;;;;;;;;4981144;28;20209;-72
2022/05/01 01:20:27;;;;;;;0.10;0.10;;;;;;;;;;4982188;28;20216;-72
2022/05/01 01:22:57;;;;;;;0.10;0.10;;;;;;;;;;4982730;28;20220;-72
2022/05/01 01:25:26;;;;;;;0.10;0.10;;;;;;;;;;4981357;28;20228;-72
2022/05/01 01:27:55;;;;;;;0.10;0.10;;;;;;;;;;4983256;28;20194;-72
2022/05/01 01:33:08;;;;;;;0.10;0.10;;;;;;;;;;4982786;28;20220;-72
2022/05/01 01:35:37;;;;;;;0.10;0.10;;;;;;;;;;4982553;28;20315;-72
2022/05/01 01:38:06;;;;;;;0.10;0.10;;;;;;;;;;4982539;28;20205;-73
2022/05/01 01:40:36;;;;;;;0.10;0.10;;;;;;;;;;4982939;28;20248;-72
2022/05/01 01:43:05;;;;;;;0.10;0.10;;;;;;;;;;4983385;28;20209;-72
2022/05/01 01:45:33;;;;;;;0.10;0.10;;;;;;;;;;4982774;28;20354;-72
2022/05/01 01:48:09;;;;;;;0.10;0.10;;;;;;;;;;4984733;28;20213;-72
2022/05/01 01:50:37;;;;;;;0.10;0.10;;;;;;;;;;4984564;28;20221;-72
2022/05/01 01:53:06;;;;;;;0.10;0.10;;;;;;;;;;4983654;28;20569;-71
2022/05/01 01:55:33;;;;;;;0.10;0.10;;;;;;;;;;4985099;28;20266;-72
2022/05/01 01:58:01;;;;;;;0.10;0.10;;;;;;;;;;4979840;28;20216;-71
2022/05/01 02:00:28;;;;;;;0.10;0.10;;;;;;;;;;4985306;28;20293;-72
2022/05/01 02:02:58;;;;;;;0.10;0.10;;;;;;;;;;4984606;28;20291;-72
2022/05/01 02:05:26;;;;;;;0.10;0.10;;;;;;;;;;4987211;28;20290;-72
2022/05/01 02:07:54;;;;;;;0.10;0.10;;;;;;;;;;4986662;28;20232;-72
2022/05/01 02:10:22;;;;;;;0.10;0.10;;;;;;;;;;4984681;28;20209;-72
2022/05/01 02:12:50;;;;;;;0.10;0.10;;;;;;;;;;4986411;28;20202;-73
2022/05/01 02:15:17;;;;;;;0.10;0.10;;;;;;;;;;4984465;28;20359;-74
2022/05/01 02:17:45;;;;;;;0.10;0.10;;;;;;;;;;4984784;28;20212;-72
2022/05/01 02:20:12;;;;;;;0.10;0.10;;;;;;;;;;4982493;28;20212;-72
2022/05/01 02:22:41;;;;;;;0.10;0.10;;;;;;;;;;4984933;28;20209;-72
2022/05/01 02:25:09;;;;;;;0.10;0.10;;;;;;;;;;4983063;28;20223;-72
2022/05/01 02:27:38;;;;;;;0.10;0.10;;;;;;;;;;4988383;28;20201;-72
2022/05/01 02:30:06;;;;;;;0.10;0.10;;;;;;;;;;5004495;28;20239;-72
2022/05/01 02:32:33;;;;;;;0.10;0.10;;;;;;;;;;4987332;28;20210;-71
2022/05/01 02:35:01;;;;;;;0.10;0.10;;;;;;;;;;4990894;28;20229;-71
2022/05/01 02:37:28;;;;;;;0.10;0.10;;;;;;;;;;4989959;28;20204;-71
2022/05/01 02:39:56;;;;;;;0.10;0.10;;;;;;;;;;4990110;28;20209;-72
2022/05/01 02:42:23;;;;;;;0.10;0.10;;;;;;;;;;4988839;28;20256;-72
2022/05/01 02:44:52;;;;;;;0.10;0.10;;;;;;;;;;4990270;28;20221;-72
2022/05/01 02:47:19;;;;;;;0.10;0.10;;;;;;;;;;4989673;28;20651;-72
2022/05/01 02:49:46;;;;;;;0.10;0.10;;;;;;;;;;4989748;28;20229;-71
2022/05/01 02:52:14;;;;;;;0.10;0.10;;;;;;;;;;4990892;28;20225;-72
2022/05/01 02:54:41;;;;;;;0.10;0.10;;;;;;;;;;4990349;28;20225;-72
2022/05/01 02:57:08;;;;;;;0.10;0.10;;;;;;;;;;4983736;28;20214;-72
2022/05/01 02:59:36;;;;;;;0.10;0.10;;;;;;;;;;4988481;28;20252;-73
2022/05/01 03:02:05;;;;;;;0.10;0.10;;;;;;;;;;4989664;28;20345;-72
2022/05/01 03:04:32;;;;;;;0.10;0.10;;;;;;;;;;4989861;28;20619;-72
2022/05/01 03:06:59;;;;;;;0.10;0.10;;;;;;;;;;4990238;28;20206;-70
2022/05/01 03:09:27;;;;;;;0.10;0.10;;;;;;;;;;4990001;28;20201;-70
2022/05/01 03:11:54;;;;;;;0.10;0.10;;;;;;;;;;4989257;28;20220;-70
2022/05/01 03:14:21;;;;;;;0.10;0.10;;;;;;;;;;4987934;28;20230;-72
2022/05/01 03:16:49;;;;;;;0.10;0.10;;;;;;;;;;4991254;28;20204;-71
2022/05/01 03:22:13;;;;;;;0.10;0.10;;;;;;;;;;4988155;28;20197;-71
2022/05/01 03:24:41;;;;;;;0.10;0.10;;;;;;;;;;4990262;28;20217;-72
2022/05/01 03:27:09;;;;;;;0.10;0.10;;;;;;;;;;4988516;28;20205;-71
2022/05/01 03:29:36;;;;;;;0.10;0.10;;;;;;;;;;4989257;28;20659;-71
2022/05/01 03:32:07;;;;;;;0.10;0.10;;;;;;;;;;4988215;28;20212;-71
2022/05/01 03:34:37;;;;;;;0.10;0.10;;;;;;;;;;4989665;28;20221;-72
2022/05/01 03:37:06;;;;;;;0.03;0.03;;;;;;;;;;4989889;28;20612;-72
2022/05/01 03:39:34;;;;;;;0.10;0.10;;;;;;;;;;4987243;28;20674;-72
2022/05/01 03:42:01;;;;;;;0.10;0.10;;;;;;;;;;4989051;28;20202;-72
2022/05/01 03:44:29;;;;;;;0.00;0.00;;;;;;;;;;4988113;28;20230;-72
2022/05/01 03:46:56;;;;;;;0.10;0.10;;;;;;;;;;4989462;28;20631;-71
2022/05/01 03:49:24;;;;;;;0.10;0.10;;;;;;;;;;4983782;28;20639;-71
2022/05/01 03:51:53;;;;;;;0.10;0.10;;;;;;;;;;4988165;28;20292;-71
2022/05/01 03:54:20;;;;;;;0.10;0.10;;;;;;;;;;5004910;28;20225;-71
2022/05/01 03:56:48;;;;;;;0.10;0.10;;;;;;;;;;4986167;28;20215;-72
2022/05/01 03:59:15;;;;;;;0.10;0.10;;;;;;;;;;4985422;28;20201;-71
2022/05/01 04:01:42;;;;;;;0.10;0.10;;;;;;;;;;4985908;28;20236;-71
2022/05/01 04:04:10;;;;;;;0.10;0.10;;;;;;;;;;4989112;28;20264;-71
2022/05/01 04:06:37;;;;;;;0.00;0.00;;;;;;;;;;4987470;28;20201;-72
2022/05/01 04:09:06;;;;;;;0.10;0.10;;;;;;;;;;4988471;28;20211;-72
2022/05/01 04:11:33;;;;;;;0.10;0.10;;;;;;;;;;4989641;28;20202;-72
2022/05/01 04:14:01;;;;;;;0.10;0.10;;;;;;;;;;4990474;28;20664;-72
2022/05/01 04:16:28;;;;;;;0.10;0.10;;;;;;;;;;4986319;28;20201;-72
2022/05/01 04:18:56;;;;;;;0.10;0.10;;;;;;;;;;4988321;28;20263;-72
2022/05/01 04:21:23;;;;;;;0.10;0.10;;;;;;;;;;4988979;28;20280;-72
2022/05/01 04:23:50;;;;;;;0.10;0.10;;;;;;;;;;4988436;28;20336;-71
2022/05/01 04:26:19;;;;;;;0.10;0.10;;;;;;;;;;4988507;28;20210;-72
2022/05/01 04:31:28;;;;;;;0.10;0.10;;;;;;;;;;4987995;28;20201;-72
2022/05/01 04:33:55;;;;;;;0.10;0.10;;;;;;;;;;4988844;28;20220;-72
2022/05/01 04:36:23;;;;;;;0.10;0.10;;;;;;;;;;4989896;28;20201;-72
2022/05/01 04:38:51;;;;;;;0.10;0.10;;;;;;;;;;4987103;28;20209;-71
2022/05/01 04:41:19;;;;;;;0.10;0.10;;;;;;;;;;4986473;28;20648;-72
2022/05/01 04:43:47;;;;;;;0.10;0.10;;;;;;;;;;4987277;28;20224;-71
2022/05/01 04:46:14;;;;;;;0.10;0.10;;;;;;;;;;4984637;28;20233;-72
2022/05/01 04:48:41;;;;;;;0.10;0.10;;;;;;;;;;4988192;28;20197;-72
2022/05/01 04:51:09;;;;;;;0.10;0.10;;;;;;;;;;4984319;28;20628;-72
2022/05/01 04:53:37;;;;;;;0.10;0.10;;;;;;;;;;4986704;28;20232;-72
2022/05/01 04:58:48;;;;;;;0.10;0.10;;;;;;;;;;4984242;28;20620;-72
2022/05/01 05:01:17;;;;;;;0.10;0.10;;;;;;;;;;4984529;28;20714;-72
2022/05/01 05:03:45;;;;;;;0.10;0.10;;;;;;;;;;4988177;28;20637;-70
2022/05/01 05:06:12;;;;;;;0.10;0.10;;;;;;;;;;4985361;28;20208;-72
2022/05/01 05:11:24;;;;;;;0.10;0.10;;;;;;;;;;4986079;28;20754;-72
2022/05/01 05:13:53;;;;;;;0.13;0.13;;;;;;;;;;4988167;28;20218;-71
2022/05/01 05:16:21;;;;;;;0.10;0.10;;;;;;;;;;4985057;28;20200;-71
2022/05/01 05:18:48;;;;;;;0.10;0.10;;;;;;;;;;4986467;28;20209;-72
2022/05/01 05:21:15;;;;;;;0.10;0.10;;;;;;;;;;4988246;28;20201;-72
2022/05/01 05:23:42;;;;;;;0.10;0.10;;;;;;;;;;4985061;28;20663;-72
2022/05/01 05:26:09;;;;;;;0.10;0.10;;;;;;;;;;4988954;28;20205;-72
2022/05/01 05:28:37;;;;;;;0.17;0.17;;;;;;;;;;4987034;28;20194;-72
2022/05/01 05:31:06;;;;;;;0.10;0.10;;;;;;;;;;4992300;28;20205;-71
2022/05/01 05:33:34;;;;;;;0.10;0.10;;;;;;;;;;4986413;28;20289;-72
2022/05/01 05:36:01;;;;;;;0.10;0.10;;;;;;;;;;4989407;28;20236;-72
2022/05/01 05:38:29;;;;;;;0.10;0.10;;;;;;;;;;4985671;28;20249;-72
2022/05/01 05:40:56;;;;;;;0.10;0.10;;;;;;;;;;4988031;28;20201;-73
2022/05/01 05:43:23;;;;;;;0.10;0.10;;;;;;;;;;4980958;28;20328;-74
2022/05/01 05:45:51;;;;;;;0.10;0.10;;;;;;;;;;4985776;28;20734;-72
2022/05/01 05:48:20;;;;;;;0.10;0.10;;;;;;;;;;4986252;28;20209;-72
2022/05/01 05:50:47;;;;;;;0.10;0.10;;;;;;;;;;4986150;28;20212;-72
2022/05/01 05:53:15;;;;;;;0.10;0.10;;;;;;;;;;4986339;28;20711;-71
2022/05/01 05:55:45;;;;;;;0.10;0.10;;;;;;;;;;4985508;28;20232;-72
2022/05/01 05:58:12;;;;;;;0.10;0.10;;;;;;;;;;4988714;28;20198;-72
2022/05/01 06:00:40;;;;;;;0.10;0.10;;;;;;;;;;4979677;28;20211;-72
2022/05/01 06:03:07;;;;;;;0.10;0.10;;;;;;;;;;4986834;28;20202;-71
2022/05/01 06:05:36;;;;;;;0.10;0.10;;;;;;;;;;4989373;28;20217;-71
2022/05/01 06:08:03;;;;;;;0.10;0.10;;;;;;;;;;4989089;28;20636;-72
2022/05/01 06:10:30;;;;;;;0.10;0.10;;;;;;;;;;4991132;28;20608;-72
2022/05/01 06:12:58;;;;;;;0.10;0.10;;;;;;;;;;4990342;28;20204;-72
2022/05/01 06:15:25;;;;;;;0.10;0.10;;;;;;;;;;4990573;28;20668;-72
2022/05/01 06:17:53;;;;;;;0.10;0.10;;;;;;;;;;4988687;28;20225;-73
2022/05/01 06:20:20;;;;;;;0.10;0.10;;;;;;;;;;4990304;28;20201;-73
2022/05/01 06:22:51;;;;;;;0.10;0.10;;;;;;;;;;4989354;28;20209;-71
2022/05/01 06:25:19;;;;;;;0.10;0.10;;;;;;;;;;4989093;28;20249;-73
2022/05/01 06:27:46;;;;;;;0.10;0.10;;;;;;;;;;4988971;28;20225;-72
2022/05/01 06:30:14;;;;;;;0.10;0.10;;;;;;;;;;4987252;28;20197;-72
2022/05/01 06:32:42;;;;;;;0.10;0.10;;;;;;;;;;4985129;28;20201;-72
2022/05/01 06:35:10;;;;;;;0.10;0.10;;;;;;;;;;4987007;28;20225;-73
2022/05/01 06:37:38;;;;;;;0.10;0.10;;;;;;;;;;4984753;28;20193;-72
2022/05/01 06:40:07;;;;;;;0.10;0.10;;;;;;;;;;4988281;28;20208;-72
2022/05/01 06:42:35;;;;;;;0.10;0.10;;;;;;;;;;4985936;28;20287;-72
2022/05/01 06:45:03;;;;;;;0.10;0.10;;;;;;;;;;4986632;28;20253;-72
2022/05/01 06:47:30;;;;;;;0.10;0.10;;;;;;;;;;4985071;28;20213;-72
2022/05/01 06:49:58;;;;;;;0.10;0.10;;;;;;;;;;4983755;28;20206;-71
2022/05/01 06:52:25;;;;;;;0.10;0.10;;;;;;;;;;4986269;28;20272;-71
2022/05/01 06:54:53;;;;;;;0.10;0.10;;;;;;;;;;4985871;28;20225;-71
2022/05/01 06:57:22;;;;;;;0.10;0.10;;;;;;;;;;4979739;28;20213;-72
2022/05/01 06:59:49;;;;;;;0.10;0.10;;;;;;;;;;4990414;28;20204;-71
2022/05/01 07:02:17;;;;;;;0.10;0.10;;;;;;;;;;4978686;28;20260;-73
2022/05/01 07:04:44;;;;;;;0.10;0.10;;;;;;;;;;4983037;28;20304;-71
2022/05/01 07:07:12;;;;;;;0.10;0.10;;;;;;;;;;4981907;28;20205;-72
2022/05/01 07:09:39;;;;;;;0.10;0.10;;;;;;;;;;4980146;28;20232;-71
2022/05/01 07:12:10;;;;;;;0.10;0.10;;;;;;;;;;4982814;28;20205;-71
2022/05/01 07:14:40;;;;;;;0.10;0.10;;;;;;;;;;4996683;28;20225;-71
2022/05/01 07:17:07;;;;;;;0.10;0.10;;;;;;;;;;4981927;28;20212;-71
2022/05/01 07:19:35;;;;;;;0.00;0.00;;;;;;;;;;4982586;28;20205;-71
2022/05/01 07:22:05;;;;;;;0.10;0.10;;;;;;;;;;4983666;28;20218;-71
2022/05/01 07:24:33;;;;;;;0.07;0.07;;;;;;;;;;4985391;23;20233;-74
2022/05/01 07:27:00;;;;;;;0.10;0.10;;;;;;;;;;4952836;28;20730;-74
2022/05/01 07:29:28;;;;;;;0.07;0.07;;;;;;;;;;4946735;28;20266;-76
2022/05/01 07:31:56;;;;;;;0.10;0.10;;;;;;;;;;4942642;28;20217;-77
2022/05/01 07:34:24;;;;;;;0.10;0.10;;;;;;;;;;4940666;28;20207;-76
2022/05/01 07:36:51;;;;;;;0.10;0.10;;;;;;;;;;4946473;28;20227;-77
2022/05/01 07:39:18;;;;;;;0.10;0.10;;;;;;;;;;4940461;28;20237;-77
2022/05/01 07:41:46;;;;;;;0.10;0.10;;;;;;;;;;4939438;28;20207;-77
2022/05/01 07:44:13;;;;;;;0.10;0.10;;;;;;;;;;4936400;28;20265;-76
2022/05/01 07:46:40;;;;;;;0.10;0.10;;;;;;;;;;4975970;23;20230;-75
2022/05/01 07:49:09;;;;;;;0.10;0.10;;;;;;;;;;4978626;28;20204;-79
2022/05/01 07:51:36;;;;;;;0.10;0.10;;;;;;;;;;4982487;28;20209;-78
2022/05/01 07:54:04;;;;;;;0.10;0.10;;;;;;;;;;4971467;28;20245;-76
2022/05/01 07:56:32;;;;;;;0.10;0.10;;;;;;;;;;4977959;28;20224;-77
2022/05/01 07:58:59;;;;;;;0.10;0.10;;;;;;;;;;4962096;28;20205;-76
2022/05/01 08:01:28;;;;;;;0.10;0.10;;;;;;;;;;4965387;28;20196;-77
2022/05/01 08:06:44;;;;;;;0.10;0.10;;;;;;;;;;4974066;28;20197;-76
2022/05/01 08:09:12;;;;;;;0.10;0.10;;;;;;;;;;4958823;28;20232;-74
2022/05/01 08:11:39;;;;;;;0.10;0.10;;;;;;;;;;4966737;28;20252;-74
2022/05/01 08:14:09;;;;;;;0.10;0.10;;;;;;;;;;4958229;28;20221;-76
2022/05/01 08:16:36;;;;;;;0.10;0.10;;;;;;;;;;4982306;28;20240;-76
2022/05/01 08:21:50;;;;;;;0.10;0.10;;;;;;;;;;4977855;28;20197;-76
2022/05/01 08:24:17;;;;;;;0.10;0.10;;;;;;;;;;4981915;28;20252;-77
2022/05/01 08:26:47;;;;;;;0.10;0.10;;;;;;;;;;4968309;28;20197;-77
2022/05/01 08:29:15;;;;;;;0.10;0.10;;;;;;;;;;4958724;28;20208;-77
2022/05/01 08:31:42;;;;;;;0.10;0.10;;;;;;;;;;4974995;28;20212;-76
2022/05/01 08:34:10;;;;;;;0.10;0.10;;;;;;;;;;4960459;28;20259;-76
2022/05/01 08:36:37;;;;;;;0.10;0.10;;;;;;;;;;4982554;28;20231;-72
2022/05/01 08:39:06;;;;;;;0.10;0.10;;;;;;;;;;4978739;28;20257;-73
2022/05/01 08:41:34;;;;;;;0.10;0.10;;;;;;;;;;4959364;28;20205;-72
2022/05/01 08:44:02;;;;;;;0.10;0.10;;;;;;;;;;4963291;28;20252;-68
2022/05/01 08:46:47;;;;;;;0.10;0.10;;;;;;;;;;4979412;28;20213;-71
2022/05/01 08:49:17;;;;;;;0.10;0.10;;;;;;;;;;4974609;28;20312;-70
2022/05/01 08:51:45;;;;;;;0.10;0.10;;;;;;;;;;4961703;28;20724;-72
2022/05/01 08:54:15;;;;;;;0.10;0.10;;;;;;;;;;4973066;28;20298;-70
2022/05/01 08:56:44;;;;;;;0.10;0.10;;;;;;;;;;4973221;28;20229;-71
2022/05/01 08:59:12;;;;;;;0.10;0.10;;;;;;;;;;4963770;28;20266;-74
2022/05/01 09:01:40;;;;;;;0.10;0.10;;;;;;;;;;4971841;28;20197;-75
2022/05/01 09:04:08;;;;;;;0.10;0.10;;;;;;;;;;4963174;28;20232;-70
2022/05/01 09:06:36;;;;;;;0.10;0.10;;;;;;;;;;4963890;28;20276;-70
2022/05/01 09:09:05;;;;;;;0.00;0.00;;;;;;;;;;4982498;28;20352;-71
2022/05/01 09:14:21;;;;;;;0.10;0.10;;;;;;;;;;4964068;28;20221;-72
2022/05/01 09:17:09;;;;;;;0.10;0.10;;;;;;;;;;4965528;28;20232;-72
2022/05/01 09:19:37;;;;;;;0.10;0.10;;;;;;;;;;4974848;28;20209;-70
2022/05/01 09:22:04;;;;;;;0.00;0.00;;;;;;;;;;4971352;28;20202;-71
2022/05/01 09:24:32;;;;;;;0.10;0.10;;;;;;;;;;4955575;28;20217;-72
2022/05/01 09:27:01;;;;;;;0.10;0.10;;;;;;;;;;4976883;28;20209;-71
2022/05/01 09:29:32;;;;;;;0.10;0.10;;;;;;;;;;4979906;28;20279;-69
2022/05/01 09:32:01;;;;;;;0.00;0.00;;;;;;;;;;4962259;28;20202;-70
2022/05/01 09:34:30;;;;;;;0.10;0.10;;;;;;;;;;4979409;28;20242;-69
2022/05/01 09:36:58;;;;;;;0.10;0.10;;;;;;;;;;4977230;28;20236;-69
2022/05/01 09:39:26;;;;;;;0.10;0.10;;;;;;;;;;4958793;28;20724;-69
2022/05/01 09:41:54;;;;;;;0.10;0.10;;;;;;;;;;4968593;28;20263;-70
2022/05/01 09:44:23;;;;;;;0.10;0.10;;;;;;;;;;4976558;28;20252;-70
2022/05/01 09:46:51;;;;;;;0.10;0.10;;;;;;;;;;4978024;28;20314;-70
2022/05/01 09:49:19;;;;;;;0.00;0.00;;;;;;;;;;4962343;28;20223;-75
2022/05/01 09:51:47;;;;;;;0.00;0.00;;;;;;;;;;4977423;28;20193;-72
2022/05/01 09:54:21;;;;;;;0.10;0.10;;;;;;;;;;4975627;28;20312;-72
2022/05/01 09:56:51;;;;;;;0.10;0.10;;;;;;;;;;4961577;28;20229;-72
2022/05/01 09:59:19;;;;;;;0.00;0.00;;;;;;;;;;4958975;28;20212;-73
2022/05/01 10:02:02;;;;;;;0.07;0.07;;;;;;;;;;4980639;28;20307;-72
2022/05/01 10:04:30;;;;;;;0.10;0.10;;;;;;;;;;4972265;28;20221;-73
2022/05/01 10:06:58;;;;;;;0.10;0.10;;;;;;;;;;4961911;28;20206;-70
2022/05/01 10:09:26;;;;;;;0.00;0.00;;;;;;;;;;4976582;28;20197;-71
2022/05/01 10:11:55;;;;;;;0.10;0.10;;;;;;;;;;4957843;28;20201;-71
2022/05/01 10:14:23;;;;;;;0.00;0.00;;;;;;;;;;4959509;28;20228;-71
2022/05/01 10:16:50;;;;;;;0.10;0.10;;;;;;;;;;4974334;28;20225;-72
2022/05/01 10:19:19;;;;;;;0.10;0.10;;;;;;;;;;4976835;28;20208;-71
2022/05/01 10:21:48;;;;;;;0.00;0.00;;;;;;;;;;4962423;28;20259;-71
2022/05/01 10:24:16;;;;;;;0.00;0.00;;;;;;;;;;4956588;28;20217;-70
2022/05/01 10:26:47;;;;;;;0.10;0.10;;;;;;;;;;4962014;28;20202;-72
2022/05/01 10:29:32;;;;;;;0.00;0.00;;;;;;;;;;4957040;28;20210;-71
2022/05/01 10:32:22;;;;;;;0.10;0.10;;;;;;;;;;4962521;28;20259;-71
2022/05/01 10:34:58;;;;;;;0.00;0.00;;;;;;;;;;4961736;28;20227;-71
2022/05/01 10:37:30;;;;;;;0.00;0.00;;;;;;;;;;4956492;28;20252;-74
2022/05/01 10:39:59;;;;;;;0.00;0.00;;;;;;;;;;4981335;28;20320;-69
2022/05/01 10:42:38;;;;;;;0.00;0.00;;;;;;;;;;4961829;28;20280;-71
2022/05/01 10:45:20;;;;;;;0.07;0.07;;;;;;;;;;4968238;28;20229;-70
2022/05/01 10:47:49;;;;;;;0.00;0.00;;;;;;;;;;4964380;28;20209;-71
2022/05/01 10:50:21;;;;;;;0.07;0.07;;;;;;;;;;4961609;28;20216;-70
2022/05/01 10:53:04;;;;;;;0.10;0.10;;;;;;;;;;4974494;28;20245;-70
2022/05/01 10:55:42;;;;;;;0.00;0.00;;;;;;;;;;4979280;28;20213;-69
2022/05/01 10:58:19;;;;;;;0.00;0.00;;;;;;;;;;4980367;28;20248;-71
2022/05/01 11:00:47;;;;;;;0.00;0.00;;;;;;;;;;4966677;28;20205;-73
2022/05/01 11:03:24;;;;;;;0.00;0.00;;;;;;;;;;4961819;28;20224;-73
2022/05/01 11:05:55;;;;;;;0.00;0.00;;;;;;;;;;4963730;28;20229;-72
2022/05/01 11:08:25;;;;;;;0.00;0.00;;;;;;;;;;4961022;28;20235;-74
2022/05/01 11:10:53;;;;;;;0.00;0.00;;;;;;;;;;4978923;28;20268;-71
2022/05/01 11:13:21;;;;;;;0.00;0.00;;;;;;;;;;4962412;28;20287;-70
2022/05/01 11:15:49;;;;;;;0.00;0.00;;;;;;;;;;4967393;28;20205;-71
2022/05/01 11:18:17;;;;;;;0.00;0.00;;;;;;;;;;4966188;28;20256;-72
2022/05/01 11:20:46;;;;;;;0.10;0.10;;;;;;;;;;4967357;28;20209;-71
2022/05/01 11:23:34;;;;;;;0.00;0.00;;;;;;;;;;4964942;28;20210;-70
2022/05/01 11:26:08;;;;;;;0.00;0.00;;;;;;;;;;4976398;28;20225;-71
2022/05/01 11:28:53;;;;;;;0.10;0.10;;;;;;;;;;4977418;28;20247;-74
2022/05/01 11:31:40;;;;;;;0.10;0.10;;;;;;;;;;4988552;28;20256;-71
2022/05/01 11:34:40;;;;;;;0.10;0.10;;;;;;;;;;4965644;28;20366;-71
2022/05/01 11:37:09;;;;;;;0.00;0.00;;;;;;;;;;4921242;29;20231;-71
2022/05/01 11:39:54;;;;;;;0.00;0.00;;;;;;;;;;4922229;29;20293;-70
2022/05/01 11:42:31;;;;;;;0.00;0.00;;;;;;;;;;4939027;28;20213;-70
2022/05/01 11:44:58;;;;;;;0.00;0.00;;;;;;;;;;4963701;28;20233;-70
2022/05/01 11:47:27;;;;;;;0.00;0.00;;;;;;;;;;4960974;28;20216;-70
2022/05/01 11:49:54;;;;;;;0.00;0.00;;;;;;;;;;4980068;28;20193;-70
2022/05/01 11:52:22;;;;;;;0.00;0.00;;;;;;;;;;4982613;28;20202;-69
2022/05/01 11:54:52;;;;;;;0.00;0.00;;;;;;;;;;4966669;28;20232;-72
2022/05/01 12:02:57;;;;;;;0.00;0.00;;;;;;;;;;4963369;28;20204;-72
2022/05/01 12:05:25;;;;;;;0.00;0.00;;;;;;;;;;4981339;28;20241;-71
2022/05/01 12:07:56;;;;;;;0.00;0.00;;;;;;;;;;4960159;28;20197;-70
2022/05/01 12:10:24;;;;;;;0.00;0.00;;;;;;;;;;4983060;28;20221;-70
2022/05/01 12:12:51;;;;;;;0.10;0.10;;;;;;;;;;4979279;28;20216;-71
2022/05/01 12:15:20;;;;;;;0.00;0.00;;;;;;;;;;4964146;28;20275;-71
2022/05/01 12:17:47;;;;;;;0.00;0.00;;;;;;;;;;4975195;28;20230;-71
2022/05/01 12:20:14;;;;;;;0.00;0.00;;;;;;;;;;4978183;28;20201;-70
2022/05/01 12:22:43;;;;;;;0.00;0.00;;;;;;;;;;4979515;28;20204;-70
2022/05/01 12:25:12;;;;;;;0.00;0.00;;;;;;;;;;4979571;28;20240;-70
2022/05/01 12:27:41;;;;;;;0.00;0.00;;;;;;;;;;4973552;28;20209;-71
2022/05/01 12:30:09;;;;;;;0.00;0.00;;;;;;;;;;4981310;28;20259;-70
2022/05/01 12:32:38;;;;;;;0.00;0.00;;;;;;;;;;4971582;28;20202;-70
2022/05/01 12:35:06;;;;;;;0.00;0.00;;;;;;;;;;4983403;28;20225;-71
2022/05/01 12:37:34;;;;;;;0.00;0.00;;;;;;;;;;4961821;28;20220;-71
2022/05/01 12:40:03;;;;;;;0.00;0.00;;;;;;;;;;4980887;28;20208;-70
2022/05/01 12:45:18;;;;;;;0.00;0.00;;;;;;;;;;4962501;28;20217;-70
2022/05/01 12:47:48;;;;;;;0.07;0.07;;;;;;;;;;4964608;28;20204;-68
2022/05/01 12:50:27;;;;;;;0.00;0.00;;;;;;;;;;4976225;28;20290;-69
2022/05/01 12:52:57;;;;;;;0.00;0.00;;;;;;;;;;4976985;28;20215;-69
2022/05/01 12:55:29;;;;;;;0.00;0.00;;;;;;;;;;4980548;28;20320;-70
2022/05/01 12:57:57;;;;;;;0.00;0.00;;;;;;;;;;4973890;28;20237;-69
2022/05/01 13:00:32;;;;;;;0.00;0.00;;;;;;;;;;4975434;28;20210;-70
2022/05/01 13:03:13;;;;;;;0.00;0.00;;;;;;;;;;4977020;28;20205;-70
2022/05/01 13:05:40;;;;;;;0.00;0.00;;;;;;;;;;4958762;28;20205;-72
2022/05/01 13:08:16;;;;;;;0.00;0.00;;;;;;;;;;4960621;28;20252;-70
2022/05/01 13:10:43;;;;;;;0.00;0.00;;;;;;;;;;4958446;28;20224;-69
2022/05/01 13:13:11;;;;;;;0.00;0.00;;;;;;;;;;4961079;28;20201;-70
2022/05/01 13:15:38;;;;;;;0.00;0.00;;;;;;;;;;4977567;28;20201;-69
2022/05/01 13:18:07;;;;;;;0.00;0.00;;;;;;;;;;4980178;28;20605;-69
2022/05/01 13:20:34;;;;;;;0.00;0.00;;;;;;;;;;4960165;28;20201;-71
2022/05/01 13:23:02;;;;;;;0.00;0.00;;;;;;;;;;4961592;28;20235;-69
2022/05/01 13:25:31;;;;;;;0.00;0.00;;;;;;;;;;4961376;28;20221;-69
2022/05/01 13:27:58;;;;;;;0.10;0.10;;;;;;;;;;4974509;28;20242;-70
2022/05/01 13:30:25;;;;;;;0.00;0.00;;;;;;;;;;4960482;28;20205;-72
2022/05/01 13:32:54;;;;;;;0.00;0.00;;;;;;;;;;4976833;28;20209;-69
2022/05/01 13:35:22;;;;;;;0.00;0.00;;;;;;;;;;4977054;28;20332;-70
2022/05/01 13:37:50;;;;;;;0.00;0.00;;;;;;;;;;4956271;28;20221;-70
2022/05/01 13:45:49;;;;;;;0.00;0.00;;;;;;;;;;4976354;28;20201;-70
2022/05/01 13:48:19;;;;;;;0.00;0.00;;;;;;;;;;4977728;28;20208;-70
2022/05/01 13:50:48;;;;;;;0.00;0.00;;;;;;;;;;4961418;28;20206;-70
2022/05/01 13:53:15;;;;;;;0.00;0.00;;;;;;;;;;4981093;28;20197;-70
2022/05/01 13:55:43;;;;;;;0.00;0.00;;;;;;;;;;4962674;28;20277;-69
2022/05/01 13:58:10;;;;;;;0.00;0.00;;;;;;;;;;4975722;28;20704;-70
2022/05/01 14:00:38;;;;;;;0.00;0.00;;;;;;;;;;4976987;28;20201;-70
2022/05/01 14:03:07;;;;;;;0.00;0.00;;;;;;;;;;4961934;28;20205;-69
2022/05/01 14:05:35;;;;;;;0.00;0.00;;;;;;;;;;4959880;28;20228;-70
2022/05/01 14:08:04;;;;;;;0.00;0.00;;;;;;;;;;4962258;28;20201;-70
2022/05/01 14:10:32;;;;;;;0.00;0.00;;;;;;;;;;4962926;28;20207;-70
2022/05/01 14:13:00;;;;;;;0.00;0.00;;;;;;;;;;4955067;28;20212;-70
2022/05/01 14:15:27;;;;;;;0.00;0.00;;;;;;;;;;4973804;28;20225;-70
2022/05/01 14:17:56;;;;;;;0.00;0.00;;;;;;;;;;4959173;28;20221;-67
2022/05/01 14:20:24;;;;;;;0.00;0.00;;;;;;;;;;4977427;28;20213;-70
2022/05/01 14:22:51;;;;;;;0.00;0.00;;;;;;;;;;4964428;28;20215;-71
2022/05/01 14:25:20;;;;;;;0.00;0.00;;;;;;;;;;4961526;28;20217;-70
2022/05/01 14:27:47;;;;;;;0.00;0.00;;;;;;;;;;4967585;28;20204;-68
2022/05/01 14:30:14;;;;;;;0.00;0.00;;;;;;;;;;4965650;28;20268;-69
2022/05/01 14:32:43;;;;;;;0.07;0.07;;;;;;;;;;4983698;28;20205;-70
2022/05/01 14:35:11;;;;;;;0.10;0.10;;;;;;;;;;4964813;28;20228;-71
2022/05/01 14:37:41;;;;;;;0.00;0.00;;;;;;;;;;4956945;28;20745;-69
2022/05/01 14:40:10;;;;;;;0.00;0.00;;;;;;;;;;4980181;28;20780;-70
2022/05/01 14:42:41;;;;;;;0.00;0.00;;;;;;;;;;4956315;28;20850;-71
2022/05/01 14:45:09;;;;;;;0.00;0.00;;;;;;;;;;4965272;28;20225;-71
2022/05/01 14:47:40;;;;;;;0.00;0.00;;;;;;;;;;4978858;28;20213;-72
2022/05/01 14:50:11;;;;;;;0.00;0.00;;;;;;;;;;4962364;28;20206;-71
2022/05/01 14:52:38;;;;;;;0.00;0.00;;;;;;;;;;4964824;28;20225;-73
2022/05/01 14:55:08;;;;;;;0.00;0.00;;;;;;;;;;4962949;28;20311;-72
2022/05/01 14:57:36;;;;;;;0.00;0.00;;;;;;;;;;4981334;28;20317;-71
2022/05/01 15:08:24;;;;;;;0.00;0.00;;;;;;;;;;4977109;28;20216;-72
2022/05/01 15:10:51;;;;;;;0.00;0.00;;;;;;;;;;4973713;28;20194;-73
2022/05/01 15:13:19;;;;;;;0.00;0.00;;;;;;;;;;4962310;28;20259;-72
2022/05/01 15:15:57;;;;;;;0.00;0.00;;;;;;;;;;4963528;28;20213;-72
2022/05/01 15:18:26;;;;;;;0.00;0.00;;;;;;;;;;4981628;28;20213;-72
2022/05/01 15:20:55;;;;;;;0.00;0.00;;;;;;;;;;4982798;28;20210;-72
2022/05/01 15:23:28;;;;;;;0.07;0.07;;;;;;;;;;4971021;28;20216;-73
2022/05/01 15:26:00;;;;;;;0.00;0.00;;;;;;;;;;4967196;28;20214;-72
2022/05/01 15:28:28;;;;;;;0.00;0.00;;;;;;;;;;4962054;28;20698;-72
2022/05/01 15:30:57;;;;;;;0.00;0.00;;;;;;;;;;4962818;28;20235;-72
2022/05/01 15:33:44;;;;;;;0.00;0.00;;;;;;;;;;4958381;28;20224;-72